sensor_id;sensor_type;location;lat;lon;timestamp;P1;durP1;ratioP1;P2;durP2;ratioP2
57385;SDS011;71829;56.976;21.958;2023-11-21T00:01:08;12.10;;;3.38;;
57385;SDS011;71829;56.976;21.958;2023-11-21T00:03:36;15.60;;;3.63;;
57385;SDS011;71829;56.976;21.958;2023-11-21T00:06:03;14.63;;;3.38;;
57385;SDS011;71829;56.976;21.958;2023-11-21T00:08:35;15.13;;;3.80;;
57385;SDS011;71829;56.976;21.958;2023-11-21T00:11:03;12.63;;;3.60;;
57385;SDS011;71829;56.976;21.958;2023-11-21T00:13:32;10.90;;;3.47;;
57385;SDS011;71829;56.976;21.958;2023-11-21T00:16:00;12.80;;;4.20;;
57385;SDS011;71829;56.976;21.958;2023-11-21T00:18:27;11.80;;;4.22;;
57385;SDS011;71829;56.976;21.958;2023-11-21T00:20:55;15.68;;;3.20;;
57385;SDS011;71829;56.976;21.958;2023-11-21T00:23:25;12.02;;;3.75;;
57385;SDS011;71829;56.976;21.958;2023-11-21T00:25:53;12.68;;;3.90;;
57385;SDS011;71829;56.976;21.958;2023-11-21T00:28:20;13.85;;;4.78;;
57385;SDS011;71829;56.976;21.958;2023-11-21T00:30:48;12.60;;;3.80;;
57385;SDS011;71829;56.976;21.958;2023-11-21T00:33:16;12.35;;;4.35;;
57385;SDS011;71829;56.976;21.958;2023-11-21T00:35:44;8.02;;;2.90;;
57385;SDS011;71829;56.976;21.958;2023-11-21T00:38:11;10.15;;;3.15;;
57385;SDS011;71829;56.976;21.958;2023-11-21T00:40:39;7.97;;;2.67;;
57385;SDS011;71829;56.976;21.958;2023-11-21T00:43:06;10.95;;;3.45;;
57385;SDS011;71829;56.976;21.958;2023-11-21T00:45:34;14.05;;;3.22;;
57385;SDS011;71829;56.976;21.958;2023-11-21T00:48:03;17.58;;;3.60;;
57385;SDS011;71829;56.976;21.958;2023-11-21T00:50:31;10.65;;;3.42;;
57385;SDS011;71829;56.976;21.958;2023-11-21T00:52:58;10.20;;;3.05;;
57385;SDS011;71829;56.976;21.958;2023-11-21T00:55:26;12.73;;;3.10;;
57385;SDS011;71829;56.976;21.958;2023-11-21T00:57:54;9.20;;;2.78;;
57385;SDS011;71829;56.976;21.958;2023-11-21T01:00:22;10.68;;;3.53;;
57385;SDS011;71829;56.976;21.958;2023-11-21T01:02:50;9.45;;;3.15;;
57385;SDS011;71829;56.976;21.958;2023-11-21T01:05:17;9.75;;;3.63;;
57385;SDS011;71829;56.976;21.958;2023-11-21T01:07:46;12.13;;;3.42;;
57385;SDS011;71829;56.976;21.958;2023-11-21T01:10:14;10.02;;;3.70;;
57385;SDS011;71829;56.976;21.958;2023-11-21T01:12:43;13.90;;;3.10;;
57385;SDS011;71829;56.976;21.958;2023-11-21T01:15:11;9.75;;;3.05;;
57385;SDS011;71829;56.976;21.958;2023-11-21T01:17:39;8.15;;;2.20;;
57385;SDS011;71829;56.976;21.958;2023-11-21T01:20:07;8.38;;;2.33;;
57385;SDS011;71829;56.976;21.958;2023-11-21T01:22:40;12.15;;;4.20;;
57385;SDS011;71829;56.976;21.958;2023-11-21T01:25:08;9.73;;;3.28;;
57385;SDS011;71829;56.976;21.958;2023-11-21T01:27:38;9.15;;;3.92;;
57385;SDS011;71829;56.976;21.958;2023-11-21T01:30:05;9.38;;;2.97;;
57385;SDS011;71829;56.976;21.958;2023-11-21T01:35:10;12.68;;;2.92;;
57385;SDS011;71829;56.976;21.958;2023-11-21T01:37:38;11.75;;;3.55;;
57385;SDS011;71829;56.976;21.958;2023-11-21T01:40:05;11.50;;;3.60;;
57385;SDS011;71829;56.976;21.958;2023-11-21T01:42:36;12.35;;;2.97;;
57385;SDS011;71829;56.976;21.958;2023-11-21T01:45:04;10.40;;;2.75;;
57385;SDS011;71829;56.976;21.958;2023-11-21T01:47:33;11.18;;;3.63;;
57385;SDS011;71829;56.976;21.958;2023-11-21T01:50:03;11.50;;;3.60;;
57385;SDS011;71829;56.976;21.958;2023-11-21T01:52:37;8.77;;;3.05;;
57385;SDS011;71829;56.976;21.958;2023-11-21T01:55:05;7.03;;;2.22;;
57385;SDS011;71829;56.976;21.958;2023-11-21T01:57:35;8.75;;;2.88;;
57385;SDS011;71829;56.976;21.958;2023-11-21T02:02:42;9.30;;;2.53;;
57385;SDS011;71829;56.976;21.958;2023-11-21T02:05:10;11.65;;;3.40;;
57385;SDS011;71829;56.976;21.958;2023-11-21T02:07:41;16.15;;;2.13;;
57385;SDS011;71829;56.976;21.958;2023-11-21T02:10:15;10.40;;;3.22;;
57385;SDS011;71829;56.976;21.958;2023-11-21T02:12:43;10.27;;;2.60;;
57385;SDS011;71829;56.976;21.958;2023-11-21T02:15:14;7.57;;;2.15;;
57385;SDS011;71829;56.976;21.958;2023-11-21T02:17:47;8.95;;;2.10;;
57385;SDS011;71829;56.976;21.958;2023-11-21T02:20:19;14.07;;;4.88;;
57385;SDS011;71829;56.976;21.958;2023-11-21T02:22:53;7.72;;;2.40;;
57385;SDS011;71829;56.976;21.958;2023-11-21T02:25:26;9.45;;;3.15;;
57385;SDS011;71829;56.976;21.958;2023-11-21T02:27:57;11.45;;;2.40;;
57385;SDS011;71829;56.976;21.958;2023-11-21T02:30:25;11.25;;;3.25;;
57385;SDS011;71829;56.976;21.958;2023-11-21T02:32:54;9.27;;;3.90;;
57385;SDS011;71829;56.976;21.958;2023-11-21T02:35:25;7.53;;;2.90;;
57385;SDS011;71829;56.976;21.958;2023-11-21T02:37:53;8.40;;;2.28;;
57385;SDS011;71829;56.976;21.958;2023-11-21T02:40:21;7.85;;;2.42;;
57385;SDS011;71829;56.976;21.958;2023-11-21T02:42:51;9.05;;;2.17;;
57385;SDS011;71829;56.976;21.958;2023-11-21T02:45:19;9.57;;;2.15;;
57385;SDS011;71829;56.976;21.958;2023-11-21T02:47:48;8.40;;;2.50;;
57385;SDS011;71829;56.976;21.958;2023-11-21T02:50:16;8.00;;;2.72;;
57385;SDS011;71829;56.976;21.958;2023-11-21T02:52:45;8.05;;;1.88;;
57385;SDS011;71829;56.976;21.958;2023-11-21T02:55:13;7.43;;;2.42;;
57385;SDS011;71829;56.976;21.958;2023-11-21T02:57:43;11.40;;;2.85;;
57385;SDS011;71829;56.976;21.958;2023-11-21T03:00:11;10.45;;;3.33;;
57385;SDS011;71829;56.976;21.958;2023-11-21T03:02:41;8.93;;;3.28;;
57385;SDS011;71829;56.976;21.958;2023-11-21T03:05:10;12.73;;;2.67;;
57385;SDS011;71829;56.976;21.958;2023-11-21T03:07:38;12.15;;;2.67;;
57385;SDS011;71829;56.976;21.958;2023-11-21T03:10:06;8.15;;;2.00;;
57385;SDS011;71829;56.976;21.958;2023-11-21T03:12:36;8.80;;;2.17;;
57385;SDS011;71829;56.976;21.958;2023-11-21T03:15:06;10.93;;;2.63;;
57385;SDS011;71829;56.976;21.958;2023-11-21T03:17:34;8.07;;;1.83;;
57385;SDS011;71829;56.976;21.958;2023-11-21T03:20:02;5.72;;;2.15;;
57385;SDS011;71829;56.976;21.958;2023-11-21T03:22:31;9.80;;;2.45;;
57385;SDS011;71829;56.976;21.958;2023-11-21T03:25:00;7.22;;;2.17;;
57385;SDS011;71829;56.976;21.958;2023-11-21T03:27:28;8.40;;;2.00;;
57385;SDS011;71829;56.976;21.958;2023-11-21T03:29:55;11.05;;;2.42;;
57385;SDS011;71829;56.976;21.958;2023-11-21T03:32:23;8.98;;;2.33;;
57385;SDS011;71829;56.976;21.958;2023-11-21T03:34:55;11.50;;;2.70;;
57385;SDS011;71829;56.976;21.958;2023-11-21T03:37:23;8.93;;;2.00;;
57385;SDS011;71829;56.976;21.958;2023-11-21T03:39:51;6.88;;;2.00;;
57385;SDS011;71829;56.976;21.958;2023-11-21T03:42:25;11.15;;;2.80;;
57385;SDS011;71829;56.976;21.958;2023-11-21T03:44:57;12.52;;;2.85;;
57385;SDS011;71829;56.976;21.958;2023-11-21T03:47:26;8.75;;;2.00;;
57385;SDS011;71829;56.976;21.958;2023-11-21T03:49:53;7.60;;;1.65;;
57385;SDS011;71829;56.976;21.958;2023-11-21T03:52:21;11.18;;;2.40;;
57385;SDS011;71829;56.976;21.958;2023-11-21T03:54:49;6.57;;;1.60;;
57385;SDS011;71829;56.976;21.958;2023-11-21T03:57:17;8.40;;;1.85;;
57385;SDS011;71829;56.976;21.958;2023-11-21T03:59:44;5.88;;;2.53;;
57385;SDS011;71829;56.976;21.958;2023-11-21T04:02:17;11.15;;;2.63;;
57385;SDS011;71829;56.976;21.958;2023-11-21T04:04:45;5.57;;;1.92;;
57385;SDS011;71829;56.976;21.958;2023-11-21T04:07:12;8.00;;;1.63;;
57385;SDS011;71829;56.976;21.958;2023-11-21T04:09:40;9.18;;;1.88;;
57385;SDS011;71829;56.976;21.958;2023-11-21T04:12:07;10.27;;;2.92;;
57385;SDS011;71829;56.976;21.958;2023-11-21T04:14:38;9.70;;;2.30;;
57385;SDS011;71829;56.976;21.958;2023-11-21T04:17:05;6.88;;;2.25;;
57385;SDS011;71829;56.976;21.958;2023-11-21T04:19:34;7.22;;;2.08;;
57385;SDS011;71829;56.976;21.958;2023-11-21T04:22:01;9.18;;;2.25;;
57385;SDS011;71829;56.976;21.958;2023-11-21T04:24:29;9.88;;;2.00;;
57385;SDS011;71829;56.976;21.958;2023-11-21T04:26:56;22.45;;;1.77;;
57385;SDS011;71829;56.976;21.958;2023-11-21T04:29:24;17.60;;;2.72;;
57385;SDS011;71829;56.976;21.958;2023-11-21T04:31:51;13.13;;;2.42;;
57385;SDS011;71829;56.976;21.958;2023-11-21T04:34:19;15.68;;;2.22;;
57385;SDS011;71829;56.976;21.958;2023-11-21T04:36:46;16.85;;;3.25;;
57385;SDS011;71829;56.976;21.958;2023-11-21T04:39:14;14.07;;;2.97;;
57385;SDS011;71829;56.976;21.958;2023-11-21T04:41:41;12.07;;;2.97;;
57385;SDS011;71829;56.976;21.958;2023-11-21T04:44:09;12.55;;;2.92;;
57385;SDS011;71829;56.976;21.958;2023-11-21T04:46:37;14.23;;;3.15;;
57385;SDS011;71829;56.976;21.958;2023-11-21T04:49:04;11.13;;;2.60;;
57385;SDS011;71829;56.976;21.958;2023-11-21T04:51:32;15.27;;;3.08;;
57385;SDS011;71829;56.976;21.958;2023-11-21T04:53:59;14.52;;;2.28;;
57385;SDS011;71829;56.976;21.958;2023-11-21T04:56:27;9.65;;;2.65;;
57385;SDS011;71829;56.976;21.958;2023-11-21T04:58:54;11.73;;;2.47;;
57385;SDS011;71829;56.976;21.958;2023-11-21T05:01:22;15.85;;;2.80;;
57385;SDS011;71829;56.976;21.958;2023-11-21T05:03:49;9.52;;;2.50;;
57385;SDS011;71829;56.976;21.958;2023-11-21T05:06:17;8.75;;;2.40;;
57385;SDS011;71829;56.976;21.958;2023-11-21T05:08:45;11.68;;;2.67;;
57385;SDS011;71829;56.976;21.958;2023-11-21T05:11:22;10.93;;;3.47;;
57385;SDS011;71829;56.976;21.958;2023-11-21T05:13:49;12.85;;;3.20;;
57385;SDS011;71829;56.976;21.958;2023-11-21T05:16:17;10.32;;;3.22;;
57385;SDS011;71829;56.976;21.958;2023-11-21T05:18:45;13.70;;;2.63;;
57385;SDS011;71829;56.976;21.958;2023-11-21T05:21:13;16.10;;;4.75;;
57385;SDS011;71829;56.976;21.958;2023-11-21T05:23:41;14.13;;;3.42;;
57385;SDS011;71829;56.976;21.958;2023-11-21T05:26:08;12.52;;;3.78;;
57385;SDS011;71829;56.976;21.958;2023-11-21T05:28:36;17.67;;;3.85;;
57385;SDS011;71829;56.976;21.958;2023-11-21T05:31:04;12.32;;;3.35;;
57385;SDS011;71829;56.976;21.958;2023-11-21T05:36:09;11.57;;;2.60;;
57385;SDS011;71829;56.976;21.958;2023-11-21T05:38:37;14.55;;;4.07;;
57385;SDS011;71829;56.976;21.958;2023-11-21T05:41:09;14.23;;;3.75;;
57385;SDS011;71829;56.976;21.958;2023-11-21T05:43:39;14.23;;;3.95;;
57385;SDS011;71829;56.976;21.958;2023-11-21T05:46:07;13.23;;;4.80;;
57385;SDS011;71829;56.976;21.958;2023-11-21T05:48:35;16.23;;;3.63;;
57385;SDS011;71829;56.976;21.958;2023-11-21T05:51:06;20.73;;;4.07;;
57385;SDS011;71829;56.976;21.958;2023-11-21T05:53:37;17.80;;;4.65;;
57385;SDS011;71829;56.976;21.958;2023-11-21T05:56:05;13.85;;;3.78;;
57385;SDS011;71829;56.976;21.958;2023-11-21T05:58:34;14.90;;;3.95;;
57385;SDS011;71829;56.976;21.958;2023-11-21T06:01:05;14.20;;;3.28;;
57385;SDS011;71829;56.976;21.958;2023-11-21T06:03:40;10.18;;;3.20;;
57385;SDS011;71829;56.976;21.958;2023-11-21T06:06:08;14.30;;;3.55;;
57385;SDS011;71829;56.976;21.958;2023-11-21T06:08:35;17.15;;;4.65;;
57385;SDS011;71829;56.976;21.958;2023-11-21T06:11:03;12.63;;;3.88;;
57385;SDS011;71829;56.976;21.958;2023-11-21T06:13:30;13.15;;;3.22;;
57385;SDS011;71829;56.976;21.958;2023-11-21T06:15:58;17.63;;;4.15;;
57385;SDS011;71829;56.976;21.958;2023-11-21T06:18:26;11.45;;;4.05;;
57385;SDS011;71829;56.976;21.958;2023-11-21T06:20:55;16.70;;;4.53;;
57385;SDS011;71829;56.976;21.958;2023-11-21T06:23:23;17.73;;;8.40;;
57385;SDS011;71829;56.976;21.958;2023-11-21T06:25:50;17.05;;;4.95;;
57385;SDS011;71829;56.976;21.958;2023-11-21T06:28:18;16.58;;;4.25;;
57385;SDS011;71829;56.976;21.958;2023-11-21T06:30:46;16.48;;;3.25;;
57385;SDS011;71829;56.976;21.958;2023-11-21T06:33:13;13.95;;;3.92;;
57385;SDS011;71829;56.976;21.958;2023-11-21T06:35:41;19.65;;;5.05;;
57385;SDS011;71829;56.976;21.958;2023-11-21T06:38:08;15.43;;;4.15;;
57385;SDS011;71829;56.976;21.958;2023-11-21T06:40:36;17.60;;;4.57;;
57385;SDS011;71829;56.976;21.958;2023-11-21T06:43:03;15.20;;;4.85;;
57385;SDS011;71829;56.976;21.958;2023-11-21T06:45:33;17.42;;;5.22;;
57385;SDS011;71829;56.976;21.958;2023-11-21T06:48:02;16.30;;;5.22;;
57385;SDS011;71829;56.976;21.958;2023-11-21T06:50:30;23.27;;;5.97;;
57385;SDS011;71829;56.976;21.958;2023-11-21T06:52:57;14.15;;;5.00;;
57385;SDS011;71829;56.976;21.958;2023-11-21T06:55:26;17.63;;;5.18;;
57385;SDS011;71829;56.976;21.958;2023-11-21T06:57:56;19.98;;;4.63;;
57385;SDS011;71829;56.976;21.958;2023-11-21T07:00:24;17.98;;;5.20;;
57385;SDS011;71829;56.976;21.958;2023-11-21T07:02:52;26.30;;;9.05;;
57385;SDS011;71829;56.976;21.958;2023-11-21T07:05:20;16.67;;;6.07;;
57385;SDS011;71829;56.976;21.958;2023-11-21T07:07:48;18.83;;;6.40;;
57385;SDS011;71829;56.976;21.958;2023-11-21T07:10:16;16.25;;;6.75;;
57385;SDS011;71829;56.976;21.958;2023-11-21T07:12:44;20.50;;;5.28;;
57385;SDS011;71829;56.976;21.958;2023-11-21T07:17:42;10.82;;;3.22;;
57385;SDS011;71829;56.976;21.958;2023-11-21T07:20:11;11.23;;;3.30;;
57385;SDS011;71829;56.976;21.958;2023-11-21T07:22:39;11.05;;;3.47;;
57385;SDS011;71829;56.976;21.958;2023-11-21T07:25:06;7.90;;;2.20;;
57385;SDS011;71829;56.976;21.958;2023-11-21T07:27:36;9.23;;;2.60;;
57385;SDS011;71829;56.976;21.958;2023-11-21T07:30:03;7.45;;;2.45;;
57385;SDS011;71829;56.976;21.958;2023-11-21T07:32:32;12.63;;;2.03;;
57385;SDS011;71829;56.976;21.958;2023-11-21T07:35:00;10.02;;;2.38;;
57385;SDS011;71829;56.976;21.958;2023-11-21T07:37:28;9.02;;;1.58;;
57385;SDS011;71829;56.976;21.958;2023-11-21T07:39:55;16.80;;;2.22;;
57385;SDS011;71829;56.976;21.958;2023-11-21T07:42:23;9.50;;;3.13;;
57385;SDS011;71829;56.976;21.958;2023-11-21T07:44:52;11.23;;;3.20;;
57385;SDS011;71829;56.976;21.958;2023-11-21T07:47:20;11.73;;;2.90;;
57385;SDS011;71829;56.976;21.958;2023-11-21T07:49:47;10.98;;;2.83;;
57385;SDS011;71829;56.976;21.958;2023-11-21T07:52:15;5.75;;;2.15;;
57385;SDS011;71829;56.976;21.958;2023-11-21T07:54:43;8.18;;;2.17;;
57385;SDS011;71829;56.976;21.958;2023-11-21T07:57:11;11.02;;;2.35;;
57385;SDS011;71829;56.976;21.958;2023-11-21T07:59:40;5.57;;;1.27;;
57385;SDS011;71829;56.976;21.958;2023-11-21T08:02:08;10.23;;;2.33;;
57385;SDS011;71829;56.976;21.958;2023-11-21T08:04:35;10.40;;;1.88;;
57385;SDS011;71829;56.976;21.958;2023-11-21T08:07:03;8.43;;;1.50;;
57385;SDS011;71829;56.976;21.958;2023-11-21T08:09:30;7.78;;;2.15;;
57385;SDS011;71829;56.976;21.958;2023-11-21T08:11:59;6.85;;;1.33;;
57385;SDS011;71829;56.976;21.958;2023-11-21T08:14:28;7.18;;;2.08;;
57385;SDS011;71829;56.976;21.958;2023-11-21T08:16:56;8.63;;;1.90;;
57385;SDS011;71829;56.976;21.958;2023-11-21T08:19:24;12.23;;;3.75;;
57385;SDS011;71829;56.976;21.958;2023-11-21T08:21:52;6.85;;;1.75;;
57385;SDS011;71829;56.976;21.958;2023-11-21T08:24:21;16.73;;;3.20;;
57385;SDS011;71829;56.976;21.958;2023-11-21T08:26:49;16.60;;;4.45;;
57385;SDS011;71829;56.976;21.958;2023-11-21T08:29:17;14.52;;;4.35;;
57385;SDS011;71829;56.976;21.958;2023-11-21T08:31:45;13.68;;;4.88;;
57385;SDS011;71829;56.976;21.958;2023-11-21T08:34:13;9.20;;;2.80;;
57385;SDS011;71829;56.976;21.958;2023-11-21T08:36:42;11.65;;;2.67;;
57385;SDS011;71829;56.976;21.958;2023-11-21T08:39:10;10.18;;;2.70;;
57385;SDS011;71829;56.976;21.958;2023-11-21T08:41:39;10.40;;;2.28;;
57385;SDS011;71829;56.976;21.958;2023-11-21T08:44:06;6.68;;;2.28;;
57385;SDS011;71829;56.976;21.958;2023-11-21T08:46:34;9.60;;;3.35;;
57385;SDS011;71829;56.976;21.958;2023-11-21T08:49:03;7.88;;;2.30;;
57385;SDS011;71829;56.976;21.958;2023-11-21T08:51:31;6.93;;;2.15;;
57385;SDS011;71829;56.976;21.958;2023-11-21T08:53:58;10.70;;;2.63;;
57385;SDS011;71829;56.976;21.958;2023-11-21T08:56:28;11.07;;;2.30;;
57385;SDS011;71829;56.976;21.958;2023-11-21T08:58:57;8.93;;;2.55;;
57385;SDS011;71829;56.976;21.958;2023-11-21T09:01:24;106.65;;;32.35;;
57385;SDS011;71829;56.976;21.958;2023-11-21T09:03:52;21.20;;;6.80;;
57385;SDS011;71829;56.976;21.958;2023-11-21T09:06:20;11.38;;;2.85;;
57385;SDS011;71829;56.976;21.958;2023-11-21T09:08:47;9.82;;;2.63;;
57385;SDS011;71829;56.976;21.958;2023-11-21T09:11:15;7.18;;;2.08;;
57385;SDS011;71829;56.976;21.958;2023-11-21T09:13:42;10.63;;;2.60;;
57385;SDS011;71829;56.976;21.958;2023-11-21T09:16:11;11.75;;;2.97;;
57385;SDS011;71829;56.976;21.958;2023-11-21T09:18:38;12.25;;;3.50;;
57385;SDS011;71829;56.976;21.958;2023-11-21T09:21:06;9.20;;;3.55;;
57385;SDS011;71829;56.976;21.958;2023-11-21T09:23:35;8.77;;;2.17;;
57385;SDS011;71829;56.976;21.958;2023-11-21T09:26:03;51.17;;;18.17;;
57385;SDS011;71829;56.976;21.958;2023-11-21T09:28:32;36.42;;;16.00;;
57385;SDS011;71829;56.976;21.958;2023-11-21T09:30:59;30.13;;;9.20;;
57385;SDS011;71829;56.976;21.958;2023-11-21T09:33:29;25.85;;;8.05;;
57385;SDS011;71829;56.976;21.958;2023-11-21T09:35:57;14.80;;;5.93;;
57385;SDS011;71829;56.976;21.958;2023-11-21T09:38:25;14.50;;;5.57;;
57385;SDS011;71829;56.976;21.958;2023-11-21T09:40:55;13.93;;;5.63;;
57385;SDS011;71829;56.976;21.958;2023-11-21T09:43:31;28.13;;;10.02;;
57385;SDS011;71829;56.976;21.958;2023-11-21T09:46:00;29.58;;;11.18;;
57385;SDS011;71829;56.976;21.958;2023-11-21T09:48:29;12.95;;;5.50;;
57385;SDS011;71829;56.976;21.958;2023-11-21T09:50:57;11.90;;;4.40;;
57385;SDS011;71829;56.976;21.958;2023-11-21T09:53:26;9.93;;;3.90;;
57385;SDS011;71829;56.976;21.958;2023-11-21T09:55:56;10.85;;;3.60;;
57385;SDS011;71829;56.976;21.958;2023-11-21T09:58:24;9.10;;;3.10;;
57385;SDS011;71829;56.976;21.958;2023-11-21T10:00:55;12.40;;;2.10;;
57385;SDS011;71829;56.976;21.958;2023-11-21T10:03:24;7.18;;;2.35;;
57385;SDS011;71829;56.976;21.958;2023-11-21T10:05:53;8.02;;;2.22;;
57385;SDS011;71829;56.976;21.958;2023-11-21T10:08:27;8.00;;;1.70;;
57385;SDS011;71829;56.976;21.958;2023-11-21T10:11:12;7.43;;;2.35;;
57385;SDS011;71829;56.976;21.958;2023-11-21T10:13:41;6.93;;;2.03;;
57385;SDS011;71829;56.976;21.958;2023-11-21T10:16:09;7.82;;;2.13;;
57385;SDS011;71829;56.976;21.958;2023-11-21T10:18:38;12.68;;;2.60;;
57385;SDS011;71829;56.976;21.958;2023-11-21T10:21:07;8.25;;;2.17;;
57385;SDS011;71829;56.976;21.958;2023-11-21T10:23:35;9.68;;;3.10;;
57385;SDS011;71829;56.976;21.958;2023-11-21T10:26:03;11.00;;;3.30;;
57385;SDS011;71829;56.976;21.958;2023-11-21T10:31:27;9.55;;;3.25;;
57385;SDS011;71829;56.976;21.958;2023-11-21T10:33:56;9.60;;;3.38;;
57385;SDS011;71829;56.976;21.958;2023-11-21T10:36:25;9.23;;;3.00;;
57385;SDS011;71829;56.976;21.958;2023-11-21T10:38:56;10.05;;;3.92;;
57385;SDS011;71829;56.976;21.958;2023-11-21T10:41:23;14.20;;;5.72;;
57385;SDS011;71829;56.976;21.958;2023-11-21T10:43:52;16.48;;;7.15;;
57385;SDS011;71829;56.976;21.958;2023-11-21T10:46:22;21.65;;;8.00;;
57385;SDS011;71829;56.976;21.958;2023-11-21T10:48:53;28.70;;;10.60;;
57385;SDS011;71829;56.976;21.958;2023-11-21T10:51:23;26.70;;;9.35;;
57385;SDS011;71829;56.976;21.958;2023-11-21T10:53:53;29.23;;;9.48;;
57385;SDS011;71829;56.976;21.958;2023-11-21T10:56:22;28.98;;;12.98;;
57385;SDS011;71829;56.976;21.958;2023-11-21T10:58:50;35.13;;;13.32;;
57385;SDS011;71829;56.976;21.958;2023-11-21T11:01:19;31.33;;;13.35;;
57385;SDS011;71829;56.976;21.958;2023-11-21T11:03:50;19.63;;;8.90;;
57385;SDS011;71829;56.976;21.958;2023-11-21T11:08:48;24.15;;;9.48;;
57385;SDS011;71829;56.976;21.958;2023-11-21T11:11:16;20.40;;;9.45;;
57385;SDS011;71829;56.976;21.958;2023-11-21T11:13:45;19.67;;;8.40;;
57385;SDS011;71829;56.976;21.958;2023-11-21T11:16:12;19.75;;;8.70;;
57385;SDS011;71829;56.976;21.958;2023-11-21T11:18:44;22.73;;;7.80;;
57385;SDS011;71829;56.976;21.958;2023-11-21T11:21:18;19.42;;;7.90;;
57385;SDS011;71829;56.976;21.958;2023-11-21T11:23:53;24.60;;;10.35;;
57385;SDS011;71829;56.976;21.958;2023-11-21T11:26:51;25.25;;;10.02;;
57385;SDS011;71829;56.976;21.958;2023-11-21T11:34:41;31.40;;;12.25;;
57385;SDS011;71829;56.976;21.958;2023-11-21T11:37:11;21.80;;;9.80;;
57385;SDS011;71829;56.976;21.958;2023-11-21T11:39:40;30.52;;;9.50;;
57385;SDS011;71829;56.976;21.958;2023-11-21T11:42:11;27.38;;;9.43;;
57385;SDS011;71829;56.976;21.958;2023-11-21T11:50:02;18.50;;;7.80;;
57385;SDS011;71829;56.976;21.958;2023-11-21T11:53:14;26.75;;;10.77;;
57385;SDS011;71829;56.976;21.958;2023-11-21T11:55:42;31.80;;;11.98;;
57385;SDS011;71829;56.976;21.958;2023-11-21T11:58:10;33.45;;;12.95;;
57385;SDS011;71829;56.976;21.958;2023-11-21T12:00:38;25.30;;;11.20;;
57385;SDS011;71829;56.976;21.958;2023-11-21T12:03:08;26.85;;;10.93;;
57385;SDS011;71829;56.976;21.958;2023-11-21T12:05:39;23.95;;;10.38;;
57385;SDS011;71829;56.976;21.958;2023-11-21T12:08:10;30.75;;;12.98;;
57385;SDS011;71829;56.976;21.958;2023-11-21T12:10:39;27.15;;;10.25;;
57385;SDS011;71829;56.976;21.958;2023-11-21T12:13:07;25.88;;;10.65;;
57385;SDS011;71829;56.976;21.958;2023-11-21T12:15:35;27.33;;;11.57;;
57385;SDS011;71829;56.976;21.958;2023-11-21T12:18:04;29.05;;;11.40;;
57385;SDS011;71829;56.976;21.958;2023-11-21T12:20:32;27.08;;;10.95;;
57385;SDS011;71829;56.976;21.958;2023-11-21T12:23:06;31.13;;;11.50;;
57385;SDS011;71829;56.976;21.958;2023-11-21T12:25:42;35.35;;;11.60;;
57385;SDS011;71829;56.976;21.958;2023-11-21T12:28:10;35.13;;;15.15;;
57385;SDS011;71829;56.976;21.958;2023-11-21T12:30:38;41.40;;;16.52;;
57385;SDS011;71829;56.976;21.958;2023-11-21T12:33:06;33.17;;;14.23;;
57385;SDS011;71829;56.976;21.958;2023-11-21T12:35:36;24.52;;;6.60;;
57385;SDS011;71829;56.976;21.958;2023-11-21T12:38:04;18.05;;;5.53;;
57385;SDS011;71829;56.976;21.958;2023-11-21T12:40:36;16.83;;;4.28;;
57385;SDS011;71829;56.976;21.958;2023-11-21T12:43:04;11.90;;;5.30;;
57385;SDS011;71829;56.976;21.958;2023-11-21T12:45:34;17.30;;;4.85;;
57385;SDS011;71829;56.976;21.958;2023-11-21T12:48:02;15.82;;;4.38;;
57385;SDS011;71829;56.976;21.958;2023-11-21T12:50:37;13.60;;;4.10;;
57385;SDS011;71829;56.976;21.958;2023-11-21T12:53:08;17.30;;;5.90;;
57385;SDS011;71829;56.976;21.958;2023-11-21T12:55:38;11.27;;;4.78;;
57385;SDS011;71829;56.976;21.958;2023-11-21T12:58:07;13.15;;;4.00;;
57385;SDS011;71829;56.976;21.958;2023-11-21T13:00:40;10.27;;;4.03;;
57385;SDS011;71829;56.976;21.958;2023-11-21T13:03:10;16.55;;;4.50;;
57385;SDS011;71829;56.976;21.958;2023-11-21T13:05:50;13.00;;;4.80;;
57385;SDS011;71829;56.976;21.958;2023-11-21T13:08:21;13.27;;;4.07;;
57385;SDS011;71829;56.976;21.958;2023-11-21T13:10:56;14.45;;;3.72;;
57385;SDS011;71829;56.976;21.958;2023-11-21T13:13:25;13.65;;;3.50;;
57385;SDS011;71829;56.976;21.958;2023-11-21T13:15:59;11.15;;;4.25;;
57385;SDS011;71829;56.976;21.958;2023-11-21T13:18:28;28.38;;;7.93;;
57385;SDS011;71829;56.976;21.958;2023-11-21T13:20:58;14.35;;;6.43;;
57385;SDS011;71829;56.976;21.958;2023-11-21T13:23:26;14.05;;;4.40;;
57385;SDS011;71829;56.976;21.958;2023-11-21T13:25:55;17.33;;;5.55;;
57385;SDS011;71829;56.976;21.958;2023-11-21T13:28:32;13.30;;;4.07;;
57385;SDS011;71829;56.976;21.958;2023-11-21T13:31:01;13.13;;;4.63;;
57385;SDS011;71829;56.976;21.958;2023-11-21T13:33:48;15.95;;;4.93;;
57385;SDS011;71829;56.976;21.958;2023-11-21T13:36:31;15.32;;;5.32;;
57385;SDS011;71829;56.976;21.958;2023-11-21T13:39:03;14.70;;;4.18;;
57385;SDS011;71829;56.976;21.958;2023-11-21T13:41:35;15.98;;;6.13;;
57385;SDS011;71829;56.976;21.958;2023-11-21T13:44:05;12.70;;;4.07;;
57385;SDS011;71829;56.976;21.958;2023-11-21T13:46:54;20.90;;;5.68;;
57385;SDS011;71829;56.976;21.958;2023-11-21T13:49:25;25.45;;;5.97;;
57385;SDS011;71829;56.976;21.958;2023-11-21T13:51:53;25.30;;;4.40;;
57385;SDS011;71829;56.976;21.958;2023-11-21T13:54:22;23.30;;;6.00;;
57385;SDS011;71829;56.976;21.958;2023-11-21T13:56:51;23.65;;;8.88;;
57385;SDS011;71829;56.976;21.958;2023-11-21T13:59:19;29.90;;;11.60;;
57385;SDS011;71829;56.976;21.958;2023-11-21T14:01:53;25.88;;;10.25;;
57385;SDS011;71829;56.976;21.958;2023-11-21T14:04:23;31.00;;;11.07;;
57385;SDS011;71829;56.976;21.958;2023-11-21T14:07:08;31.27;;;12.07;;
57385;SDS011;71829;56.976;21.958;2023-11-21T14:10:11;47.03;;;12.10;;
57385;SDS011;71829;56.976;21.958;2023-11-21T14:12:41;25.45;;;10.35;;
57385;SDS011;71829;56.976;21.958;2023-11-21T14:15:09;22.27;;;9.50;;
57385;SDS011;71829;56.976;21.958;2023-11-21T14:17:38;22.27;;;9.68;;
57385;SDS011;71829;56.976;21.958;2023-11-21T14:20:08;29.50;;;10.23;;
57385;SDS011;71829;56.976;21.958;2023-11-21T14:22:43;24.63;;;10.50;;
57385;SDS011;71829;56.976;21.958;2023-11-21T14:25:10;24.83;;;9.98;;
57385;SDS011;71829;56.976;21.958;2023-11-21T14:27:38;19.48;;;8.43;;
57385;SDS011;71829;56.976;21.958;2023-11-21T14:30:06;44.13;;;10.27;;
57385;SDS011;71829;56.976;21.958;2023-11-21T14:32:34;21.75;;;9.02;;
57385;SDS011;71829;56.976;21.958;2023-11-21T14:35:05;29.73;;;9.73;;
57385;SDS011;71829;56.976;21.958;2023-11-21T14:37:32;22.08;;;10.02;;
57385;SDS011;71829;56.976;21.958;2023-11-21T14:40:00;35.88;;;11.93;;
57385;SDS011;71829;56.976;21.958;2023-11-21T14:42:27;32.17;;;9.93;;
57385;SDS011;71829;56.976;21.958;2023-11-21T14:44:56;22.88;;;7.97;;
57385;SDS011;71829;56.976;21.958;2023-11-21T14:47:35;21.17;;;7.50;;
57385;SDS011;71829;56.976;21.958;2023-11-21T14:50:05;26.92;;;8.45;;
57385;SDS011;71829;56.976;21.958;2023-11-21T14:52:52;18.65;;;6.35;;
57385;SDS011;71829;56.976;21.958;2023-11-21T14:55:26;48.58;;;16.38;;
57385;SDS011;71829;56.976;21.958;2023-11-21T14:57:58;54.25;;;19.73;;
57385;SDS011;71829;56.976;21.958;2023-11-21T15:00:31;39.10;;;15.13;;
57385;SDS011;71829;56.976;21.958;2023-11-21T15:03:02;39.63;;;14.80;;